Terminal Aerodrome Forecast
Issued by NWS

Home | Current Version | Previous Version | Text Only | Print | Product List | Glossary On
Versions: 1 2 3 4 5 6 7 8 9 10 11 12 13 14 15 16 17 18
000
FTUS46 KLOX 190010 CCA
TAFPMD
TAF COR
KPMD 190010Z 1900/1924 23020G30KT P6SM BKN050 BKN100
     FM190400 22020G30KT P6SM -SHRA OVC050
     FM191100 23020G30KT 4SM +RA BR BKN017 OVC035
     FM191500 24014G25KT 3SM TSRA BR BKN012 OVC025CB
     FM191700 25020G30KT P6SM -SHRA BKN035 BKN060=

USA.gov is the U.S. government's official web portal to all federal, state and local government web resources and services.